Time;durP1;ratioP1;P1;durP2;ratioP2;P2;SDS_P1;SDS_P2;PMS_P1;PMS_P2;Temp;Humidity;BMP_temperature;BMP_pressure;BME280_temperature;BME280_humidity;BME280_pressure;Samples;Min_cycle;Max_cycle;Signal;HPM_P1;HPM_P2
2023/12/21 00:02:21;;;;;;;12.07;2.13;;;;;;;;;;5018382;28;20103;-70
2023/12/21 00:04:49;;;;;;;17.55;2.40;;;;;;;;;;5035019;28;20452;-70
2023/12/21 00:07:15;;;;;;;15.65;2.50;;;;;;;;;;5017150;28;20088;-69
2023/12/21 00:09:41;;;;;;;18.20;2.55;;;;;;;;;;5018125;28;20049;-68
2023/12/21 00:12:07;;;;;;;18.92;3.15;;;;;;;;;;5050639;28;20549;-70
2023/12/21 00:14:33;;;;;;;19.58;2.90;;;;;;;;;;5034689;28;20061;-69
2023/12/21 00:16:59;;;;;;;15.25;2.58;;;;;;;;;;5001859;28;20049;-70
2023/12/21 00:19:26;;;;;;;17.35;3.45;;;;;;;;;;5016752;28;20430;-69
2023/12/21 00:21:52;;;;;;;14.63;3.47;;;;;;;;;;5018117;28;20486;-69
2023/12/21 00:24:18;;;;;;;15.38;2.80;;;;;;;;;;5017322;28;20049;-69
2023/12/21 00:26:44;;;;;;;17.02;3.30;;;;;;;;;;5016767;28;20077;-70
2023/12/21 00:29:10;;;;;;;17.10;2.90;;;;;;;;;;5034900;28;20052;-69
2023/12/21 00:31:36;;;;;;;16.70;3.38;;;;;;;;;;5035322;28;20450;-69
2023/12/21 00:34:02;;;;;;;14.65;2.90;;;;;;;;;;5017748;28;20045;-69
2023/12/21 00:36:28;;;;;;;15.52;3.03;;;;;;;;;;5035051;28;20377;-69
2023/12/21 00:39:00;;;;;;;23.13;3.33;;;;;;;;;;5035073;28;20049;-69
2023/12/21 00:41:26;;;;;;;15.45;2.70;;;;;;;;;;5034314;28;20064;-68
2023/12/21 00:43:52;;;;;;;17.85;3.20;;;;;;;;;;5050502;28;20049;-75
2023/12/21 00:46:18;;;;;;;16.60;3.33;;;;;;;;;;5034283;28;20087;-69
2023/12/21 00:48:44;;;;;;;17.52;3.22;;;;;;;;;;5049811;28;20049;-69
2023/12/21 00:51:11;;;;;;;11.23;2.60;;;;;;;;;;5035026;28;20076;-69
2023/12/21 00:53:37;;;;;;;15.85;3.03;;;;;;;;;;5034082;28;20053;-71
2023/12/21 00:56:03;;;;;;;15.23;2.80;;;;;;;;;;5034160;28;20235;-69
2023/12/21 00:58:29;;;;;;;10.82;1.98;;;;;;;;;;5034649;28;20045;-69
2023/12/21 01:00:55;;;;;;;20.42;2.65;;;;;;;;;;5035175;28;20069;-69
2023/12/21 01:03:22;;;;;;;13.03;2.90;;;;;;;;;;5000229;28;20052;-68
2023/12/21 01:05:48;;;;;;;21.35;3.00;;;;;;;;;;5033882;28;20300;-70
2023/12/21 01:08:14;;;;;;;16.73;2.30;;;;;;;;;;5049228;28;20045;-69
2023/12/21 01:10:40;;;;;;;15.60;2.33;;;;;;;;;;5033859;28;20375;-68
2023/12/21 01:13:06;;;;;;;15.02;2.72;;;;;;;;;;5016298;28;20072;-68
2023/12/21 01:15:33;;;;;;;23.27;2.87;;;;;;;;;;5016034;28;20058;-68
2023/12/21 01:17:59;;;;;;;16.02;2.25;;;;;;;;;;5033797;28;20049;-70
2023/12/21 01:20:25;;;;;;;14.43;3.10;;;;;;;;;;5033865;28;20155;-69
2023/12/21 01:22:51;;;;;;;16.45;2.47;;;;;;;;;;5016261;28;20398;-69
2023/12/21 01:25:17;;;;;;;16.33;2.72;;;;;;;;;;5032498;28;20059;-69
2023/12/21 01:27:43;;;;;;;15.57;2.47;;;;;;;;;;5033703;28;20532;-69
2023/12/21 01:30:10;;;;;;;17.50;2.40;;;;;;;;;;5032899;28;20132;-69
2023/12/21 01:32:36;;;;;;;13.25;2.20;;;;;;;;;;5032316;28;20183;-69
2023/12/21 01:35:02;;;;;;;21.25;2.58;;;;;;;;;;5033856;28;20049;-69
2023/12/21 01:37:28;;;;;;;16.60;2.20;;;;;;;;;;5033627;28;20049;-70
2023/12/21 01:39:54;;;;;;;19.52;3.00;;;;;;;;;;5015879;28;20406;-69
2023/12/21 01:42:20;;;;;;;17.35;2.35;;;;;;;;;;5033483;28;20056;-70
2023/12/21 01:44:46;;;;;;;13.52;2.25;;;;;;;;;;5048423;28;20530;-70
2023/12/21 01:47:13;;;;;;;13.80;2.28;;;;;;;;;;5016494;28;20099;-69
2023/12/21 01:49:40;;;;;;;15.57;2.83;;;;;;;;;;5033022;28;20084;-69
2023/12/21 01:52:07;;;;;;;17.50;2.75;;;;;;;;;;5015956;28;20402;-69
2023/12/21 01:54:34;;;;;;;15.95;2.58;;;;;;;;;;5033534;28;20072;-69
2023/12/21 01:57:00;;;;;;;13.73;1.90;;;;;;;;;;5033407;28;20079;-69
2023/12/21 01:59:26;;;;;;;20.42;2.22;;;;;;;;;;5032979;28;20486;-68
2023/12/21 02:01:52;;;;;;;14.23;2.07;;;;;;;;;;5048692;28;20120;-69
2023/12/21 02:04:18;;;;;;;15.80;2.15;;;;;;;;;;5033190;28;20294;-69
2023/12/21 02:06:45;;;;;;;18.42;1.80;;;;;;;;;;5015467;28;20099;-69
2023/12/21 02:09:13;;;;;;;12.70;2.35;;;;;;;;;;5033250;28;20077;-69
2023/12/21 02:11:39;;;;;;;14.63;1.85;;;;;;;;;;5033163;28;20053;-68
2023/12/21 02:14:05;;;;;;;8.95;1.60;;;;;;;;;;5033187;28;20045;-69
2023/12/21 02:16:35;;;;;;;9.32;1.45;;;;;;;;;;5032941;28;20475;-70
2023/12/21 02:19:02;;;;;;;14.73;1.45;;;;;;;;;;5033169;28;20053;-70
2023/12/21 02:21:30;;;;;;;17.02;1.58;;;;;;;;;;5033883;28;20053;-68
2023/12/21 02:23:56;;;;;;;14.43;1.70;;;;;;;;;;5033015;28;20092;-69
2023/12/21 02:26:22;;;;;;;11.50;1.38;;;;;;;;;;5033038;28;20041;-69
2023/12/21 02:28:49;;;;;;;10.65;2.28;;;;;;;;;;5032901;28;20041;-69
2023/12/21 02:31:15;;;;;;;9.63;1.30;;;;;;;;;;5033639;28;20056;-69
2023/12/21 02:33:41;;;;;;;14.32;1.42;;;;;;;;;;5032985;28;20056;-69
2023/12/21 02:36:07;;;;;;;15.80;1.50;;;;;;;;;;5015423;28;20045;-69
2023/12/21 02:38:33;;;;;;;11.70;1.37;;;;;;;;;;5033772;28;20488;-69
2023/12/21 02:41:00;;;;;;;13.07;1.80;;;;;;;;;;5033131;28;20079;-68
2023/12/21 02:43:26;;;;;;;12.75;1.63;;;;;;;;;;5036656;28;20394;-69
2023/12/21 02:45:52;;;;;;;10.52;1.77;;;;;;;;;;5018786;28;20045;-69
2023/12/21 02:48:21;;;;;;;21.35;3.20;;;;;;;;;;5036557;28;20050;-68
2023/12/21 02:50:47;;;;;;;19.77;2.03;;;;;;;;;;5036438;28;20049;-68
2023/12/21 02:53:13;;;;;;;18.52;2.55;;;;;;;;;;5002950;28;20497;-68
2023/12/21 02:55:39;;;;;;;9.60;1.88;;;;;;;;;;5036375;28;20099;-69
2023/12/21 02:58:05;;;;;;;14.77;2.38;;;;;;;;;;5036111;28;20101;-69
2023/12/21 03:00:31;;;;;;;18.60;2.60;;;;;;;;;;5018676;28;20046;-69
2023/12/21 03:02:57;;;;;;;18.45;2.47;;;;;;;;;;5035910;28;20545;-70
2023/12/21 03:05:23;;;;;;;18.48;3.42;;;;;;;;;;5036173;28;20052;-69
2023/12/21 03:07:49;;;;;;;12.95;2.58;;;;;;;;;;5036200;28;20052;-70
2023/12/21 03:10:15;;;;;;;20.95;3.05;;;;;;;;;;5036691;28;20049;-69
2023/12/21 03:12:41;;;;;;;14.95;3.30;;;;;;;;;;5035809;28;20498;-70
2023/12/21 03:15:08;;;;;;;14.30;3.03;;;;;;;;;;5035857;28;20136;-69
2023/12/21 03:17:34;;;;;;;15.27;3.70;;;;;;;;;;5036046;28;20084;-69
2023/12/21 03:20:01;;;;;;;16.10;2.78;;;;;;;;;;5019000;28;20049;-69
2023/12/21 03:22:27;;;;;;;;;;;;;;;;;;5036307;28;20398;-69
2023/12/21 03:24:53;;;;;;;14.30;2.87;;;;;;;;;;5036346;28;19927;-70
2023/12/21 03:27:19;;;;;;;15.90;3.35;;;;;;;;;;5036130;28;20059;-69
2023/12/21 03:29:46;;;;;;;7.38;1.83;;;;;;;;;;5035415;28;20486;-68
2023/12/21 03:32:12;;;;;;;19.63;3.47;;;;;;;;;;5035781;28;20046;-68
2023/12/21 03:34:38;;;;;;;16.02;3.72;;;;;;;;;;5036535;28;20050;-70
2023/12/21 03:37:04;;;;;;;16.67;3.90;;;;;;;;;;5036083;28;20048;-71
2023/12/21 03:39:30;;;;;;;13.85;4.18;;;;;;;;;;5035569;28;20045;-68
2023/12/21 03:41:56;;;;;;;17.42;3.45;;;;;;;;;;5018080;28;20045;-69
2023/12/21 03:44:23;;;;;;;19.77;3.85;;;;;;;;;;5035482;28;20565;-68
2023/12/21 03:46:49;;;;;;;17.73;3.80;;;;;;;;;;5035307;28;20049;-69
2023/12/21 03:49:15;;;;;;;20.67;3.80;;;;;;;;;;5035453;28;20124;-70
2023/12/21 03:51:41;;;;;;;15.38;3.92;;;;;;;;;;5035486;28;20053;-69
2023/12/21 03:54:07;;;;;;;11.95;3.72;;;;;;;;;;5034504;28;20049;-69
2023/12/21 03:56:33;;;;;;;14.50;3.85;;;;;;;;;;5035301;28;20045;-69
2023/12/21 03:58:59;;;;;;;16.80;3.80;;;;;;;;;;5035739;28;20053;-69
2023/12/21 04:01:26;;;;;;;15.63;3.08;;;;;;;;;;5035172;28;20060;-69
2023/12/21 04:03:52;;;;;;;14.00;3.40;;;;;;;;;;5017339;28;20099;-69
2023/12/21 04:06:18;;;;;;;10.00;2.65;;;;;;;;;;5035031;28;20085;-69
2023/12/21 04:08:44;;;;;;;13.70;3.25;;;;;;;;;;5034825;28;20491;-69
2023/12/21 04:11:10;;;;;;;16.70;3.58;;;;;;;;;;5050281;28;20118;-68
2023/12/21 04:13:37;;;;;;;16.00;3.70;;;;;;;;;;5017603;28;20411;-68
2023/12/21 04:16:03;;;;;;;14.57;3.15;;;;;;;;;;5035270;28;20045;-68
2023/12/21 04:18:30;;;;;;;13.27;2.73;;;;;;;;;;5017442;28;20041;-67
2023/12/21 04:20:57;;;;;;;13.00;3.17;;;;;;;;;;5001005;28;20299;-68
2023/12/21 04:23:24;;;;;;;12.75;3.20;;;;;;;;;;5034832;28;20052;-68
2023/12/21 04:25:50;;;;;;;;;;;;;;;;;;5017640;28;20049;-68
2023/12/21 04:28:16;;;;;;;15.63;3.40;;;;;;;;;;5034641;28;19928;-68
2023/12/21 04:30:42;;;;;;;16.40;3.22;;;;;;;;;;5034643;28;20050;-70
2023/12/21 04:33:14;;;;;;;10.68;3.08;;;;;;;;;;5034573;28;20049;-68
2023/12/21 04:35:40;;;;;;;12.10;3.25;;;;;;;;;;5034869;28;20509;-68
2023/12/21 04:38:06;;;;;;;19.65;3.55;;;;;;;;;;5016911;28;20042;-69
2023/12/21 04:40:32;;;;;;;18.83;4.55;;;;;;;;;;5017141;28;20438;-68
2023/12/21 04:42:58;;;;;;;12.63;3.55;;;;;;;;;;5034860;28;20091;-70
2023/12/21 04:45:24;;;;;;;14.00;3.88;;;;;;;;;;5033992;28;20521;-68
2023/12/21 04:47:50;;;;;;;18.70;4.05;;;;;;;;;;5016935;28;20098;-68
2023/12/21 04:50:18;;;;;;;15.10;3.77;;;;;;;;;;5034223;28;20102;-69
2023/12/21 04:52:44;;;;;;;14.77;3.17;;;;;;;;;;5017575;28;20045;-68
2023/12/21 04:55:11;;;;;;;10.63;3.35;;;;;;;;;;5034170;28;20089;-70
2023/12/21 04:57:37;;;;;;;13.63;3.88;;;;;;;;;;5034183;28;20057;-68
2023/12/21 05:00:05;;;;;;;13.20;3.40;;;;;;;;;;5034093;28;20045;-69
2023/12/21 05:02:31;;;;;;;17.65;4.65;;;;;;;;;;5034049;28;20056;-69
2023/12/21 05:04:57;;;;;;;18.30;3.80;;;;;;;;;;5016455;28;20059;-69
2023/12/21 05:07:23;;;;;;;15.63;3.10;;;;;;;;;;5016565;28;20049;-69
2023/12/21 05:09:58;;;;;;;15.65;3.45;;;;;;;;;;5016303;28;20053;-70
2023/12/21 05:12:25;;;;;;;19.60;3.60;;;;;;;;;;5017260;28;20056;-69
2023/12/21 05:14:51;;;;;;;17.10;3.30;;;;;;;;;;5033761;28;20402;-70
2023/12/21 05:17:17;;;;;;;16.02;3.30;;;;;;;;;;5033714;28;20045;-68
2023/12/21 05:19:46;;;;;;;15.13;3.42;;;;;;;;;;5049083;28;20052;-67
2023/12/21 05:22:12;;;;;;;12.80;2.83;;;;;;;;;;5033804;28;20057;-70
2023/12/21 05:24:39;;;;;;;14.38;2.83;;;;;;;;;;5016627;28;20089;-72
2023/12/21 05:27:05;;;;;;;10.20;2.55;;;;;;;;;;5033997;28;20054;-70
2023/12/21 05:29:31;;;;;;;10.25;2.42;;;;;;;;;;5034147;28;20042;-70
2023/12/21 05:31:57;;;;;;;8.55;2.20;;;;;;;;;;5034153;28;20080;-70
2023/12/21 05:34:23;;;;;;;13.60;2.67;;;;;;;;;;5034123;28;20414;-71
2023/12/21 05:36:49;;;;;;;13.68;2.10;;;;;;;;;;5033991;28;20042;-70
2023/12/21 05:39:15;;;;;;;8.48;1.73;;;;;;;;;;5033781;28;20052;-71
2023/12/21 05:41:41;;;;;;;16.23;1.92;;;;;;;;;;5033908;28;20045;-72
2023/12/21 05:44:07;;;;;;;16.17;2.10;;;;;;;;;;5033733;28;20057;-70
2023/12/21 05:46:33;;;;;;;12.95;1.80;;;;;;;;;;5015923;28;20447;-71
2023/12/21 05:48:59;;;;;;;11.18;1.40;;;;;;;;;;5033987;28;20048;-70
2023/12/21 05:51:26;;;;;;;10.30;1.63;;;;;;;;;;5033627;28;20060;-71
2023/12/21 05:53:52;;;;;;;12.77;1.57;;;;;;;;;;5015978;28;20107;-70
2023/12/21 05:56:18;;;;;;;9.93;1.27;;;;;;;;;;5033911;28;20052;-71
2023/12/21 05:58:44;;;;;;;14.53;1.20;;;;;;;;;;5034053;28;20099;-70
2023/12/21 06:01:11;;;;;;;11.27;1.20;;;;;;;;;;4999806;28;20130;-70
2023/12/21 06:03:37;;;;;;;10.25;1.73;;;;;;;;;;5015730;28;20076;-72
2023/12/21 06:06:04;;;;;;;11.10;1.70;;;;;;;;;;5032819;28;20601;-70
2023/12/21 06:08:30;;;;;;;10.45;1.50;;;;;;;;;;5033175;28;20049;-71
2023/12/21 06:10:56;;;;;;;11.32;2.25;;;;;;;;;;5033256;28;20049;-69
2023/12/21 06:13:22;;;;;;;9.10;1.85;;;;;;;;;;5034002;28;20091;-69
2023/12/21 06:15:48;;;;;;;16.07;2.73;;;;;;;;;;5033433;28;20060;-71
2023/12/21 06:18:15;;;;;;;15.38;1.75;;;;;;;;;;5037020;28;20284;-70
2023/12/21 06:20:41;;;;;;;7.32;1.45;;;;;;;;;;5052401;28;20053;-73
2023/12/21 06:23:07;;;;;;;11.50;1.88;;;;;;;;;;5037135;28;20049;-71
2023/12/21 06:25:33;;;;;;;9.30;1.90;;;;;;;;;;5019663;28;20049;-71
2023/12/21 06:27:59;;;;;;;14.77;1.70;;;;;;;;;;5019291;28;20045;-70
2023/12/21 06:30:25;;;;;;;12.65;1.60;;;;;;;;;;5019628;28;20041;-71
2023/12/21 06:32:51;;;;;;;14.27;2.22;;;;;;;;;;5036520;28;20549;-69
2023/12/21 06:35:18;;;;;;;8.98;1.80;;;;;;;;;;5036748;28;20049;-69
2023/12/21 06:37:45;;;;;;;15.13;2.08;;;;;;;;;;5036760;28;20136;-71
2023/12/21 06:40:11;;;;;;;12.05;1.88;;;;;;;;;;5036660;28;20057;-70
2023/12/21 06:42:37;;;;;;;11.70;2.80;;;;;;;;;;5019066;28;20041;-70
2023/12/21 06:45:03;;;;;;;10.15;1.52;;;;;;;;;;5018714;28;20099;-69
2023/12/21 06:47:29;;;;;;;11.20;1.58;;;;;;;;;;5036427;28;20089;-69
2023/12/21 06:49:55;;;;;;;10.82;1.33;;;;;;;;;;5036403;28;20049;-70
2023/12/21 06:52:22;;;;;;;9.85;1.48;;;;;;;;;;5036667;28;20156;-69
2023/12/21 06:54:48;;;;;;;12.82;1.60;;;;;;;;;;5036372;28;20050;-69
2023/12/21 06:57:15;;;;;;;11.60;1.30;;;;;;;;;;5018571;28;20037;-69
2023/12/21 06:59:41;;;;;;;6.28;1.33;;;;;;;;;;5036323;28;20060;-70
2023/12/21 07:02:08;;;;;;;10.43;1.17;;;;;;;;;;5036490;28;20045;-71
2023/12/21 07:04:35;;;;;;;12.38;2.25;;;;;;;;;;5051277;28;20045;-70
2023/12/21 07:07:01;;;;;;;8.25;1.40;;;;;;;;;;5034703;28;20049;-69
2023/12/21 07:09:27;;;;;;;7.38;1.48;;;;;;;;;;5036498;28;20045;-69
2023/12/21 07:11:55;;;;;;;9.45;2.30;;;;;;;;;;5036776;28;20045;-71
2023/12/21 07:14:21;;;;;;;7.88;1.45;;;;;;;;;;5018337;28;20046;-69
2023/12/21 07:16:48;;;;;;;9.38;1.30;;;;;;;;;;5035793;28;20055;-69
2023/12/21 07:19:14;;;;;;;8.98;1.70;;;;;;;;;;5035846;28;20088;-69
2023/12/21 07:21:40;;;;;;;6.95;2.03;;;;;;;;;;5018072;28;20103;-71
2023/12/21 07:24:06;;;;;;;8.80;1.30;;;;;;;;;;5035767;28;20053;-74
2023/12/21 07:26:32;;;;;;;5.05;1.08;;;;;;;;;;5017916;28;20128;-71
2023/12/21 07:28:58;;;;;;;9.25;1.52;;;;;;;;;;5049751;28;20045;-70
2023/12/21 07:31:24;;;;;;;8.60;1.40;;;;;;;;;;5035508;28;20045;-73
2023/12/21 07:33:51;;;;;;;8.70;1.52;;;;;;;;;;5035520;28;20049;-72
2023/12/21 07:36:17;;;;;;;5.65;1.58;;;;;;;;;;5018581;28;20057;-70
2023/12/21 07:38:43;;;;;;;5.85;1.20;;;;;;;;;;5035956;28;20391;-70
2023/12/21 07:41:10;;;;;;;10.50;1.38;;;;;;;;;;5018009;28;20045;-74
2023/12/21 07:43:37;;;;;;;10.43;1.80;;;;;;;;;;5035330;28;20057;-72
2023/12/21 07:46:03;;;;;;;6.68;0.73;;;;;;;;;;5035780;28;20056;-72
2023/12/21 07:48:29;;;;;;;7.60;1.27;;;;;;;;;;5050491;28;20049;-71
2023/12/21 07:50:55;;;;;;;7.55;0.93;;;;;;;;;;5035724;28;20280;-72
2023/12/21 07:53:21;;;;;;;2.83;0.63;;;;;;;;;;5035164;28;20045;-70
2023/12/21 07:55:48;;;;;;;3.05;0.70;;;;;;;;;;5001305;28;20435;-70
2023/12/21 07:58:14;;;;;;;7.38;1.10;;;;;;;;;;5050415;28;20042;-73
2023/12/21 08:00:40;;;;;;;6.85;1.02;;;;;;;;;;5017864;28;20047;-71
2023/12/21 08:03:06;;;;;;;6.38;1.20;;;;;;;;;;5017590;28;20080;-72
2023/12/21 08:05:32;;;;;;;8.95;1.00;;;;;;;;;;5034966;28;20045;-72
2023/12/21 08:07:58;;;;;;;4.25;1.00;;;;;;;;;;5034911;28;20061;-73
2023/12/21 08:10:24;;;;;;;3.77;1.00;;;;;;;;;;5016915;28;20559;-68
2023/12/21 08:12:50;;;;;;;7.50;1.13;;;;;;;;;;5034779;28;20052;-71
2023/12/21 08:15:16;;;;;;;6.10;0.90;;;;;;;;;;5034692;28;20065;-74
2023/12/21 08:17:44;;;;;;;6.43;1.08;;;;;;;;;;5017512;28;20049;-72
2023/12/21 08:20:12;;;;;;;4.90;0.77;;;;;;;;;;5034665;28;20171;-71
2023/12/21 08:22:38;;;;;;;5.03;0.63;;;;;;;;;;5034474;28;20045;-71
2023/12/21 08:25:05;;;;;;;5.22;0.73;;;;;;;;;;5034588;28;20049;-71
2023/12/21 08:27:31;;;;;;;3.45;0.57;;;;;;;;;;5034417;28;20092;-71
2023/12/21 08:29:57;;;;;;;3.90;0.70;;;;;;;;;;5034463;28;20045;-71
2023/12/21 08:32:23;;;;;;;4.38;0.90;;;;;;;;;;5049720;28;20052;-70
2023/12/21 08:34:49;;;;;;;6.20;1.42;;;;;;;;;;5034325;28;20132;-72
2023/12/21 08:37:16;;;;;;;6.93;0.75;;;;;;;;;;5034382;28;20038;-71
2023/12/21 08:39:42;;;;;;;8.32;1.08;;;;;;;;;;5016410;28;20049;-72
2023/12/21 08:42:08;;;;;;;3.22;0.70;;;;;;;;;;5034305;28;20048;-67
2023/12/21 08:44:35;;;;;;;7.93;1.40;;;;;;;;;;5049398;28;20056;-72
2023/12/21 08:47:01;;;;;;;;;;;;;;;;;;5034434;28;20056;-71
2023/12/21 08:49:27;;;;;;;7.68;0.82;;;;;;;;;;5034118;28;19921;-70
2023/12/21 08:51:53;;;;;;;5.00;0.90;;;;;;;;;;5034759;28;20470;-66
2023/12/21 08:54:20;;;;;;;10.18;1.20;;;;;;;;;;5033942;28;20050;-69
2023/12/21 08:56:46;;;;;;;8.07;1.20;;;;;;;;;;5016974;28;20041;-69
2023/12/21 08:59:12;;;;;;;8.87;1.90;;;;;;;;;;5033888;28;20175;-71
2023/12/21 09:01:39;;;;;;;8.32;1.77;;;;;;;;;;5033835;28;20045;-70
2023/12/21 09:04:05;;;;;;;11.48;2.22;;;;;;;;;;5033819;28;20536;-68
2023/12/21 09:06:32;;;;;;;13.23;1.75;;;;;;;;;;5033764;28;20125;-67
2023/12/21 09:08:59;;;;;;;9.27;1.30;;;;;;;;;;5033777;28;20052;-69
2023/12/21 09:11:27;;;;;;;8.10;1.48;;;;;;;;;;5034213;28;20124;-70
2023/12/21 09:13:54;;;;;;;6.63;1.33;;;;;;;;;;5033615;28;20050;-70
2023/12/21 09:16:21;;;;;;;11.38;1.60;;;;;;;;;;5034187;28;20107;-70
2023/12/21 09:18:47;;;;;;;12.18;1.50;;;;;;;;;;5033481;28;20080;-69
2023/12/21 09:21:14;;;;;;;10.27;1.20;;;;;;;;;;5033374;28;20073;-70
2023/12/21 09:23:41;;;;;;;6.03;1.08;;;;;;;;;;5033484;28;20673;-68
2023/12/21 09:26:08;;;;;;;7.10;1.30;;;;;;;;;;5033879;28;20053;-68
2023/12/21 09:28:36;;;;;;;11.38;1.45;;;;;;;;;;5033169;28;20068;-69
2023/12/21 09:31:03;;;;;;;12.35;1.00;;;;;;;;;;5033121;28;20513;-70
2023/12/21 09:33:31;;;;;;;8.95;1.40;;;;;;;;;;5015832;28;20041;-68
2023/12/21 09:35:58;;;;;;;11.38;1.10;;;;;;;;;;5048328;28;20045;-70
2023/12/21 09:38:24;;;;;;;13.32;1.05;;;;;;;;;;5015743;28;20081;-68
2023/12/21 09:40:51;;;;;;;7.70;0.75;;;;;;;;;;5033307;28;20118;-71
2023/12/21 09:43:21;;;;;;;12.68;0.93;;;;;;;;;;5033327;28;20053;-67
2023/12/21 09:45:52;;;;;;;5.13;0.50;;;;;;;;;;5015801;28;20045;-69
2023/12/21 09:48:20;;;;;;;6.60;0.70;;;;;;;;;;5033471;28;20042;-67
2023/12/21 09:50:51;;;;;;;12.23;1.00;;;;;;;;;;5032562;28;20053;-70
2023/12/21 09:53:18;;;;;;;9.90;1.00;;;;;;;;;;5049134;28;20053;-69
2023/12/21 09:55:46;;;;;;;11.40;1.00;;;;;;;;;;5016056;28;20061;-68
2023/12/21 09:58:12;;;;;;;9.30;1.00;;;;;;;;;;5033206;28;20184;-70
2023/12/21 10:00:38;;;;;;;12.45;1.10;;;;;;;;;;5016614;28;20089;-68
2023/12/21 10:03:05;;;;;;;8.77;1.00;;;;;;;;;;5015834;28;20053;-69
2023/12/21 10:05:32;;;;;;;12.63;1.00;;;;;;;;;;5033044;28;20128;-69
2023/12/21 10:07:58;;;;;;;12.10;1.05;;;;;;;;;;5033154;28;20056;-69
2023/12/21 10:10:24;;;;;;;17.17;2.38;;;;;;;;;;5032850;28;20498;-69
2023/12/21 10:12:50;;;;;;;8.57;0.88;;;;;;;;;;5033397;28;20115;-68
2023/12/21 10:15:20;;;;;;;12.13;1.02;;;;;;;;;;5033269;28;20068;-68
2023/12/21 10:17:46;;;;;;;13.48;0.93;;;;;;;;;;5015360;28;20057;-67
2023/12/21 10:20:13;;;;;;;10.48;1.17;;;;;;;;;;5033041;28;20041;-67
2023/12/21 10:22:43;;;;;;;7.80;0.80;;;;;;;;;;5016048;28;20136;-68
2023/12/21 10:25:10;;;;;;;12.68;1.17;;;;;;;;;;4999929;28;20049;-69
2023/12/21 10:27:37;;;;;;;10.18;1.00;;;;;;;;;;5032919;28;20212;-69
2023/12/21 10:30:04;;;;;;;11.82;1.02;;;;;;;;;;5015204;28;20103;-69
2023/12/21 10:32:30;;;;;;;10.73;0.88;;;;;;;;;;5033109;28;20379;-69
2023/12/21 10:34:58;;;;;;;13.97;0.80;;;;;;;;;;5032730;28;20096;-68
2023/12/21 10:37:24;;;;;;;12.18;1.10;;;;;;;;;;5032798;28;20403;-67
2023/12/21 10:39:51;;;;;;;9.32;1.15;;;;;;;;;;5033225;28;20049;-67
2023/12/21 10:42:17;;;;;;;11.40;1.17;;;;;;;;;;5033501;28;20037;-68
2023/12/21 10:44:47;;;;;;;7.53;1.10;;;;;;;;;;5033291;28;20394;-69
2023/12/21 10:47:15;;;;;;;12.00;1.17;;;;;;;;;;5032889;28;20041;-69
2023/12/21 10:49:43;;;;;;;17.77;1.20;;;;;;;;;;5033104;28;20046;-69
2023/12/21 10:52:10;;;;;;;7.00;0.57;;;;;;;;;;5032545;28;20046;-69
2023/12/21 10:54:36;;;;;;;12.40;1.17;;;;;;;;;;5032650;28;20088;-69
2023/12/21 10:57:04;;;;;;;12.20;0.80;;;;;;;;;;5032448;28;20073;-69
2023/12/21 10:59:31;;;;;;;8.20;0.77;;;;;;;;;;5032630;28;20049;-70
2023/12/21 11:01:57;;;;;;;8.48;0.73;;;;;;;;;;5015215;28;20477;-68
2023/12/21 11:04:24;;;;;;;9.70;0.80;;;;;;;;;;5036007;28;20132;-67
2023/12/21 11:06:50;;;;;;;7.78;0.50;;;;;;;;;;5051312;28;20052;-68
2023/12/21 11:09:20;;;;;;;12.07;0.70;;;;;;;;;;5018268;28;20080;-69
2023/12/21 11:11:46;;;;;;;8.27;0.80;;;;;;;;;;5035910;28;20045;-68
2023/12/21 11:14:13;;;;;;;8.88;0.65;;;;;;;;;;5035795;28;20045;-67
2023/12/21 11:16:46;;;;;;;8.00;0.57;;;;;;;;;;5036435;28;20099;-67
2023/12/21 11:19:14;;;;;;;9.48;0.82;;;;;;;;;;5035683;28;20071;-68
2023/12/21 11:21:40;;;;;;;5.90;0.40;;;;;;;;;;5018205;28;20168;-68
2023/12/21 11:24:07;;;;;;;6.00;0.60;;;;;;;;;;5018004;28;20045;-70
2023/12/21 11:26:33;;;;;;;10.77;1.27;;;;;;;;;;5035614;28;20042;-70
2023/12/21 11:29:05;;;;;;;13.35;1.13;;;;;;;;;;5035704;28;20048;-67
2023/12/21 11:31:38;;;;;;;14.95;0.90;;;;;;;;;;5035606;28;20045;-67
2023/12/21 11:34:15;;;;;;;13.88;1.25;;;;;;;;;;5035442;28;20046;-68
2023/12/21 11:36:41;;;;;;;10.07;1.50;;;;;;;;;;5017876;28;20073;-68
2023/12/21 11:39:12;;;;;;;10.77;1.38;;;;;;;;;;5035455;28;20049;-66
2023/12/21 11:41:56;;;;;;;14.82;1.38;;;;;;;;;;5035130;28;20053;-70
2023/12/21 11:44:22;;;;;;;13.00;0.95;;;;;;;;;;5018010;28;20056;-68
2023/12/21 11:46:48;;;;;;;18.05;1.85;;;;;;;;;;5035341;28;20127;-70
2023/12/21 11:49:21;;;;;;;19.33;1.40;;;;;;;;;;5036106;28;20390;-68
2023/12/21 11:51:49;;;;;;;12.68;1.48;;;;;;;;;;5035212;28;20431;-69
2023/12/21 11:54:18;;;;;;;15.20;1.67;;;;;;;;;;5035667;28;20049;-68
2023/12/21 11:56:44;;;;;;;11.70;0.98;;;;;;;;;;5035110;28;20095;-69
2023/12/21 11:59:10;;;;;;;16.70;1.92;;;;;;;;;;5035171;28;20467;-70
2023/12/21 12:01:37;;;;;;;13.45;0.95;;;;;;;;;;5035127;28;20088;-69
2023/12/21 12:04:06;;;;;;;16.35;1.23;;;;;;;;;;5017816;28;20104;-67
2023/12/21 12:06:33;;;;;;;18.38;1.20;;;;;;;;;;5035202;28;20071;-68
2023/12/21 12:08:59;;;;;;;16.52;1.27;;;;;;;;;;5018250;28;20367;-66
2023/12/21 12:11:25;;;;;;;13.38;1.88;;;;;;;;;;5034941;28;20430;-67
2023/12/21 12:13:51;;;;;;;15.50;1.50;;;;;;;;;;5034780;28;20053;-67
2023/12/21 12:16:18;;;;;;;13.60;1.00;;;;;;;;;;5016627;28;20132;-66
2023/12/21 12:18:44;;;;;;;15.85;1.73;;;;;;;;;;5035395;28;20045;-67
2023/12/21 12:21:10;;;;;;;14.20;2.30;;;;;;;;;;5034669;28;20085;-67
2023/12/21 12:23:36;;;;;;;13.95;1.20;;;;;;;;;;5035201;28;20403;-68
2023/12/21 12:26:03;;;;;;;14.02;1.17;;;;;;;;;;5034563;28;20045;-67
2023/12/21 12:28:29;;;;;;;13.07;1.17;;;;;;;;;;5018039;28;20375;-67
2023/12/21 12:30:55;;;;;;;19.48;1.20;;;;;;;;;;5034600;28;20277;-65
2023/12/21 12:33:21;;;;;;;14.10;1.60;;;;;;;;;;5034484;28;20049;-66
2023/12/21 12:35:51;;;;;;;12.97;1.20;;;;;;;;;;5034490;28;20394;-65
2023/12/21 12:38:18;;;;;;;18.08;1.17;;;;;;;;;;5033948;28;20406;-65
2023/12/21 12:40:48;;;;;;;14.02;1.60;;;;;;;;;;5035153;28;20088;-67
2023/12/21 12:43:14;;;;;;;16.85;1.27;;;;;;;;;;5000260;28;20486;-66
2023/12/21 12:45:41;;;;;;;18.83;1.48;;;;;;;;;;5016644;28;20080;-66
2023/12/21 12:48:10;;;;;;;17.67;2.13;;;;;;;;;;5000105;28;20566;-65
2023/12/21 12:50:36;;;;;;;16.55;1.75;;;;;;;;;;5016795;28;20502;-67
2023/12/21 12:53:09;;;;;;;17.55;1.92;;;;;;;;;;5016724;28;20049;-66
2023/12/21 12:55:36;;;;;;;16.52;2.42;;;;;;;;;;5034458;28;20091;-66
2023/12/21 12:58:05;;;;;;;17.15;1.92;;;;;;;;;;5000307;28;20053;-66
2023/12/21 13:00:32;;;;;;;10.18;1.38;;;;;;;;;;5034062;28;20049;-66
2023/12/21 13:02:58;;;;;;;18.40;1.65;;;;;;;;;;5016561;28;20502;-66
2023/12/21 13:05:24;;;;;;;24.05;2.00;;;;;;;;;;5034348;28;20107;-67
2023/12/21 13:07:50;;;;;;;17.17;1.55;;;;;;;;;;5033954;28;20045;-70
2023/12/21 13:10:17;;;;;;;16.40;2.05;;;;;;;;;;5049329;28;20053;-67
2023/12/21 13:12:44;;;;;;;17.45;1.48;;;;;;;;;;5034472;28;20103;-67
2023/12/21 13:15:11;;;;;;;16.05;1.80;;;;;;;;;;5034183;28;20057;-68
2023/12/21 13:17:38;;;;;;;19.17;1.33;;;;;;;;;;5017047;28;20064;-66
2023/12/21 13:20:05;;;;;;;18.75;1.85;;;;;;;;;;5033705;28;20052;-66
2023/12/21 13:22:31;;;;;;;15.77;1.67;;;;;;;;;;5033555;28;20049;-71
2023/12/21 13:24:57;;;;;;;13.45;1.80;;;;;;;;;;5033601;28;20124;-68
2023/12/21 13:27:23;;;;;;;13.50;1.55;;;;;;;;;;5015034;28;20042;-66
2023/12/21 13:29:49;;;;;;;13.55;1.70;;;;;;;;;;5015926;28;20060;-67
2023/12/21 13:32:15;;;;;;;14.07;1.48;;;;;;;;;;4999670;28;20486;-67
2023/12/21 13:34:42;;;;;;;16.10;1.52;;;;;;;;;;5016058;28;20064;-67
2023/12/21 13:37:08;;;;;;;19.20;1.63;;;;;;;;;;5033862;28;20037;-68
2023/12/21 13:39:34;;;;;;;12.40;0.95;;;;;;;;;;5016512;28;20377;-68
2023/12/21 13:42:00;;;;;;;14.45;1.45;;;;;;;;;;5033435;28;20072;-67
2023/12/21 13:44:28;;;;;;;17.50;2.15;;;;;;;;;;5015809;28;20056;-65
2023/12/21 13:46:56;;;;;;;16.67;2.33;;;;;;;;;;5032913;28;20498;-67
2023/12/21 13:49:26;;;;;;;16.25;1.35;;;;;;;;;;5015576;28;20049;-67
2023/12/21 13:51:52;;;;;;;17.58;2.08;;;;;;;;;;5034107;28;20050;-69
2023/12/21 13:54:18;;;;;;;13.73;2.38;;;;;;;;;;5015498;28;20045;-66
2023/12/21 13:56:47;;;;;;;13.15;1.85;;;;;;;;;;5033228;28;20087;-67
2023/12/21 13:59:14;;;;;;;16.90;1.92;;;;;;;;;;5015954;28;20050;-67
2023/12/21 14:01:40;;;;;;;17.27;2.35;;;;;;;;;;5033965;28;20386;-67
2023/12/21 14:04:06;;;;;;;12.80;1.35;;;;;;;;;;5032960;28;20509;-67
2023/12/21 14:06:33;;;;;;;15.60;1.53;;;;;;;;;;5033206;28;20056;-67
2023/12/21 14:08:59;;;;;;;24.13;2.35;;;;;;;;;;5015622;28;20132;-67
2023/12/21 14:11:25;;;;;;;14.70;1.40;;;;;;;;;;5033140;28;20053;-66
2023/12/21 14:13:54;;;;;;;16.92;2.17;;;;;;;;;;5033572;28;20128;-68
2023/12/21 14:16:20;;;;;;;18.10;1.83;;;;;;;;;;4998801;28;20060;-67
2023/12/21 14:18:46;;;;;;;17.30;1.70;;;;;;;;;;5015568;28;20107;-67
2023/12/21 14:21:13;;;;;;;18.05;2.13;;;;;;;;;;5015709;28;20041;-66
2023/12/21 14:23:39;;;;;;;17.02;1.90;;;;;;;;;;5033064;28;20104;-68
2023/12/21 14:26:08;;;;;;;25.83;2.15;;;;;;;;;;5015448;28;20045;-68
2023/12/21 14:28:34;;;;;;;19.27;2.15;;;;;;;;;;5033076;28;20061;-68
2023/12/21 14:31:01;;;;;;;16.02;1.80;;;;;;;;;;5048075;28;20046;-68